Terminal Aerodrome Forecast
Issued by NWS

Home | Current Version | Previous Version | Graphics & Text | Print | Product List | Glossary On
Versions: 1 2 3 4 5 6 7 8 9 10 11 12 13 14 15
000
FTUS42 KMHX 241124
TAFPGV
TAF
KPGV 241124Z 2412/2512 06010KT 5SM -SHRA OVC004
     FM241700 06010G15KT 5SM -SHRA SCT007 OVC010
     FM241900 08012G20KT 5SM -SHRA SCT020 OVC035
     FM250200 07012G20KT 2SM +SHRA VCTS SCT007 OVC020CB
     FM251000 07010G15KT 4SM -SHRA SCT007 OVC015
      AMD LTD TO CLD VIS AND WIND=

USA.gov is the U.S. government's official web portal to all federal, state and local government web resources and services.